sensor_id;sensor_type;location;lat;lon;timestamp;P1;durP1;ratioP1;P2;durP2;ratioP2
23588;SDS011;11972;48.078;11.876;2022-07-12T00:01:56;2.43;;;1.40;;
23588;SDS011;11972;48.078;11.876;2022-07-12T00:05:56;1.50;;;1.40;;
23588;SDS011;11972;48.078;11.876;2022-07-12T00:09:57;1.60;;;1.50;;
23588;SDS011;11972;48.078;11.876;2022-07-12T00:13:58;1.80;;;1.52;;
23588;SDS011;11972;48.078;11.876;2022-07-12T00:17:58;1.67;;;1.30;;
23588;SDS011;11972;48.078;11.876;2022-07-12T00:21:58;1.67;;;1.55;;
23588;SDS011;11972;48.078;11.876;2022-07-12T00:25:58;1.87;;;1.77;;
23588;SDS011;11972;48.078;11.876;2022-07-12T00:30:02;1.60;;;1.50;;
23588;SDS011;11972;48.078;11.876;2022-07-12T00:34:04;1.98;;;1.60;;
23588;SDS011;11972;48.078;11.876;2022-07-12T00:38:04;1.40;;;1.30;;
23588;SDS011;11972;48.078;11.876;2022-07-12T00:42:05;1.73;;;1.63;;
23588;SDS011;11972;48.078;11.876;2022-07-12T00:46:05;2.75;;;1.60;;
23588;SDS011;11972;48.078;11.876;2022-07-12T00:50:24;2.08;;;1.88;;
23588;SDS011;11972;48.078;11.876;2022-07-12T00:54:24;1.60;;;1.50;;
23588;SDS011;11972;48.078;11.876;2022-07-12T00:58:25;2.53;;;1.67;;
23588;SDS011;11972;48.078;11.876;2022-07-12T01:02:26;1.63;;;1.40;;
23588;SDS011;11972;48.078;11.876;2022-07-12T01:06:28;2.28;;;1.50;;
23588;SDS011;11972;48.078;11.876;2022-07-12T01:10:30;1.70;;;1.60;;
23588;SDS011;11972;48.078;11.876;2022-07-12T01:14:32;1.55;;;1.45;;
23588;SDS011;11972;48.078;11.876;2022-07-12T01:18:33;2.33;;;1.55;;
23588;SDS011;11972;48.078;11.876;2022-07-12T01:22:36;1.40;;;1.30;;
23588;SDS011;11972;48.078;11.876;2022-07-12T01:26:40;1.42;;;1.33;;
23588;SDS011;11972;48.078;11.876;2022-07-12T01:30:41;4.78;;;1.75;;
23588;SDS011;11972;48.078;11.876;2022-07-12T01:34:42;2.17;;;1.90;;
23588;SDS011;11972;48.078;11.876;2022-07-12T01:38:43;1.70;;;1.60;;
23588;SDS011;11972;48.078;11.876;2022-07-12T01:42:43;4.57;;;1.80;;
23588;SDS011;11972;48.078;11.876;2022-07-12T01:46:44;2.85;;;1.75;;
23588;SDS011;11972;48.078;11.876;2022-07-12T01:50:44;2.03;;;1.43;;
23588;SDS011;11972;48.078;11.876;2022-07-12T01:54:45;1.73;;;1.63;;
23588;SDS011;11972;48.078;11.876;2022-07-12T01:58:45;1.85;;;1.65;;
23588;SDS011;11972;48.078;11.876;2022-07-12T02:02:46;3.15;;;1.85;;
23588;SDS011;11972;48.078;11.876;2022-07-12T02:06:47;1.88;;;1.77;;
23588;SDS011;11972;48.078;11.876;2022-07-12T02:10:48;3.15;;;1.90;;
23588;SDS011;11972;48.078;11.876;2022-07-12T02:14:48;1.88;;;1.77;;
23588;SDS011;11972;48.078;11.876;2022-07-12T02:18:49;2.15;;;1.95;;
23588;SDS011;11972;48.078;11.876;2022-07-12T02:22:49;2.05;;;1.75;;
23588;SDS011;11972;48.078;11.876;2022-07-12T02:26:52;1.90;;;1.80;;
23588;SDS011;11972;48.078;11.876;2022-07-12T02:30:52;2.05;;;1.95;;
23588;SDS011;11972;48.078;11.876;2022-07-12T02:34:52;3.35;;;2.20;;
23588;SDS011;11972;48.078;11.876;2022-07-12T02:38:53;1.93;;;1.83;;
23588;SDS011;11972;48.078;11.876;2022-07-12T02:42:53;5.85;;;2.53;;
23588;SDS011;11972;48.078;11.876;2022-07-12T02:46:53;2.55;;;2.35;;
23588;SDS011;11972;48.078;11.876;2022-07-12T02:50:54;2.90;;;2.00;;
23588;SDS011;11972;48.078;11.876;2022-07-12T02:54:54;3.35;;;2.35;;
23588;SDS011;11972;48.078;11.876;2022-07-12T02:58:55;2.20;;;2.10;;
23588;SDS011;11972;48.078;11.876;2022-07-12T03:02:55;2.53;;;2.33;;
23588;SDS011;11972;48.078;11.876;2022-07-12T03:06:55;2.60;;;2.40;;
23588;SDS011;11972;48.078;11.876;2022-07-12T03:10:55;2.63;;;2.43;;
23588;SDS011;11972;48.078;11.876;2022-07-12T03:14:56;2.73;;;2.53;;
23588;SDS011;11972;48.078;11.876;2022-07-12T03:18:56;2.58;;;2.38;;
23588;SDS011;11972;48.078;11.876;2022-07-12T03:22:57;3.10;;;2.27;;
23588;SDS011;11972;48.078;11.876;2022-07-12T03:26:57;4.20;;;2.65;;
23588;SDS011;11972;48.078;11.876;2022-07-12T03:30:58;2.60;;;2.40;;
23588;SDS011;11972;48.078;11.876;2022-07-12T03:34:58;2.70;;;2.47;;
23588;SDS011;11972;48.078;11.876;2022-07-12T03:38:59;2.88;;;2.67;;
23588;SDS011;11972;48.078;11.876;2022-07-12T03:42:59;2.73;;;2.30;;
23588;SDS011;11972;48.078;11.876;2022-07-12T03:46:59;2.88;;;2.67;;
23588;SDS011;11972;48.078;11.876;2022-07-12T03:51:00;3.10;;;2.45;;
23588;SDS011;11972;48.078;11.876;2022-07-12T03:55:00;3.07;;;2.40;;
23588;SDS011;11972;48.078;11.876;2022-07-12T03:59:04;2.47;;;2.28;;
23588;SDS011;11972;48.078;11.876;2022-07-12T04:03:04;3.35;;;3.15;;
23588;SDS011;11972;48.078;11.876;2022-07-12T04:07:05;3.90;;;2.35;;
23588;SDS011;11972;48.078;11.876;2022-07-12T04:11:05;2.80;;;2.60;;
23588;SDS011;11972;48.078;11.876;2022-07-12T04:15:06;4.28;;;2.60;;
23588;SDS011;11972;48.078;11.876;2022-07-12T04:19:07;2.60;;;2.40;;
23588;SDS011;11972;48.078;11.876;2022-07-12T04:23:09;2.60;;;2.40;;
23588;SDS011;11972;48.078;11.876;2022-07-12T04:27:10;3.08;;;2.25;;
23588;SDS011;11972;48.078;11.876;2022-07-12T04:31:13;2.50;;;2.30;;
23588;SDS011;11972;48.078;11.876;2022-07-12T04:35:13;2.70;;;2.50;;
23588;SDS011;11972;48.078;11.876;2022-07-12T04:39:13;4.73;;;2.90;;
23588;SDS011;11972;48.078;11.876;2022-07-12T04:43:14;3.95;;;3.42;;
23588;SDS011;11972;48.078;11.876;2022-07-12T04:47:14;3.00;;;2.80;;
23588;SDS011;11972;48.078;11.876;2022-07-12T04:51:14;3.47;;;2.63;;
23588;SDS011;11972;48.078;11.876;2022-07-12T04:55:16;3.58;;;2.78;;
23588;SDS011;11972;48.078;11.876;2022-07-12T04:59:17;3.90;;;3.40;;
23588;SDS011;11972;48.078;11.876;2022-07-12T05:03:17;2.37;;;2.17;;
23588;SDS011;11972;48.078;11.876;2022-07-12T05:07:17;2.60;;;2.40;;
23588;SDS011;11972;48.078;11.876;2022-07-12T05:11:18;2.80;;;2.60;;
23588;SDS011;11972;48.078;11.876;2022-07-12T05:15:19;2.40;;;2.20;;
23588;SDS011;11972;48.078;11.876;2022-07-12T05:19:19;2.80;;;2.38;;
23588;SDS011;11972;48.078;11.876;2022-07-12T05:23:20;3.03;;;2.70;;
23588;SDS011;11972;48.078;11.876;2022-07-12T05:27:20;4.22;;;3.10;;
23588;SDS011;11972;48.078;11.876;2022-07-12T05:31:20;4.43;;;3.03;;
23588;SDS011;11972;48.078;11.876;2022-07-12T05:35:21;2.60;;;2.30;;
23588;SDS011;11972;48.078;11.876;2022-07-12T05:39:22;3.00;;;2.67;;
23588;SDS011;11972;48.078;11.876;2022-07-12T05:43:22;3.28;;;2.97;;
23588;SDS011;11972;48.078;11.876;2022-07-12T05:47:22;3.87;;;3.03;;
23588;SDS011;11972;48.078;11.876;2022-07-12T05:51:23;3.83;;;3.10;;
23588;SDS011;11972;48.078;11.876;2022-07-12T05:55:42;3.00;;;2.80;;
23588;SDS011;11972;48.078;11.876;2022-07-12T05:59:42;3.73;;;2.53;;
23588;SDS011;11972;48.078;11.876;2022-07-12T06:03:43;2.95;;;2.75;;
23588;SDS011;11972;48.078;11.876;2022-07-12T06:07:44;2.70;;;2.50;;
23588;SDS011;11972;48.078;11.876;2022-07-12T06:11:44;2.50;;;2.30;;
23588;SDS011;11972;48.078;11.876;2022-07-12T06:15:45;2.53;;;2.33;;
23588;SDS011;11972;48.078;11.876;2022-07-12T06:19:45;2.20;;;2.00;;
23588;SDS011;11972;48.078;11.876;2022-07-12T06:23:45;2.00;;;1.90;;
23588;SDS011;11972;48.078;11.876;2022-07-12T06:27:46;3.40;;;1.93;;
23588;SDS011;11972;48.078;11.876;2022-07-12T06:31:48;2.35;;;1.60;;
23588;SDS011;11972;48.078;11.876;2022-07-12T06:35:48;1.45;;;1.35;;
23588;SDS011;11972;48.078;11.876;2022-07-12T06:39:48;1.37;;;1.27;;
23588;SDS011;11972;48.078;11.876;2022-07-12T06:43:48;2.33;;;1.60;;
23588;SDS011;11972;48.078;11.876;2022-07-12T06:47:49;1.30;;;1.20;;
23588;SDS011;11972;48.078;11.876;2022-07-12T06:51:50;2.15;;;1.60;;
23588;SDS011;11972;48.078;11.876;2022-07-12T06:55:50;1.70;;;1.60;;
23588;SDS011;11972;48.078;11.876;2022-07-12T06:59:50;1.85;;;1.70;;
23588;SDS011;11972;48.078;11.876;2022-07-12T07:03:50;1.53;;;1.40;;
23588;SDS011;11972;48.078;11.876;2022-07-12T07:07:51;1.80;;;1.37;;
23588;SDS011;11972;48.078;11.876;2022-07-12T07:11:51;1.50;;;1.40;;
23588;SDS011;11972;48.078;11.876;2022-07-12T07:15:53;2.15;;;1.42;;
23588;SDS011;11972;48.078;11.876;2022-07-12T07:19:53;1.67;;;1.50;;
23588;SDS011;11972;48.078;11.876;2022-07-12T07:23:54;3.80;;;1.70;;
23588;SDS011;11972;48.078;11.876;2022-07-12T07:27:55;3.90;;;1.48;;
23588;SDS011;11972;48.078;11.876;2022-07-12T07:31:55;1.50;;;1.40;;
23588;SDS011;11972;48.078;11.876;2022-07-12T07:35:55;1.43;;;1.33;;
23588;SDS011;11972;48.078;11.876;2022-07-12T07:39:56;1.50;;;1.40;;
23588;SDS011;11972;48.078;11.876;2022-07-12T07:43:56;1.20;;;0.90;;
23588;SDS011;11972;48.078;11.876;2022-07-12T07:47:56;1.90;;;1.00;;
23588;SDS011;11972;48.078;11.876;2022-07-12T07:51:57;2.10;;;1.23;;
23588;SDS011;11972;48.078;11.876;2022-07-12T07:55:57;0.63;;;0.60;;
23588;SDS011;11972;48.078;11.876;2022-07-12T07:59:58;0.80;;;0.80;;
23588;SDS011;11972;48.078;11.876;2022-07-12T08:03:58;0.65;;;0.60;;
23588;SDS011;11972;48.078;11.876;2022-07-12T08:07:59;0.63;;;0.63;;
23588;SDS011;11972;48.078;11.876;2022-07-12T08:12:06;2.20;;;0.88;;
23588;SDS011;11972;48.078;11.876;2022-07-12T08:16:06;1.08;;;0.70;;
23588;SDS011;11972;48.078;11.876;2022-07-12T08:20:07;0.50;;;0.50;;
23588;SDS011;11972;48.078;11.876;2022-07-12T08:24:09;1.08;;;1.00;;
23588;SDS011;11972;48.078;11.876;2022-07-12T08:28:09;2.97;;;1.33;;
23588;SDS011;11972;48.078;11.876;2022-07-12T08:32:09;1.40;;;0.80;;
23588;SDS011;11972;48.078;11.876;2022-07-12T08:36:10;0.82;;;0.70;;
23588;SDS011;11972;48.078;11.876;2022-07-12T08:40:10;3.20;;;0.63;;
23588;SDS011;11972;48.078;11.876;2022-07-12T08:44:10;0.95;;;0.65;;
23588;SDS011;11972;48.078;11.876;2022-07-12T08:48:11;1.40;;;0.83;;
23588;SDS011;11972;48.078;11.876;2022-07-12T08:52:25;0.65;;;0.60;;
23588;SDS011;11972;48.078;11.876;2022-07-12T08:56:30;0.80;;;0.63;;
23588;SDS011;11972;48.078;11.876;2022-07-12T09:00:35;1.17;;;0.68;;
23588;SDS011;11972;48.078;11.876;2022-07-12T09:04:36;0.77;;;0.60;;
23588;SDS011;11972;48.078;11.876;2022-07-12T09:08:38;0.93;;;0.60;;
23588;SDS011;11972;48.078;11.876;2022-07-12T09:12:39;0.77;;;0.75;;
23588;SDS011;11972;48.078;11.876;2022-07-12T09:16:43;1.23;;;0.60;;
23588;SDS011;11972;48.078;11.876;2022-07-12T09:20:50;2.58;;;0.70;;
23588;SDS011;11972;48.078;11.876;2022-07-12T09:24:51;2.88;;;0.73;;
23588;SDS011;11972;48.078;11.876;2022-07-12T09:28:52;3.90;;;1.80;;
23588;SDS011;11972;48.078;11.876;2022-07-12T09:33:00;1.35;;;0.95;;
23588;SDS011;11972;48.078;11.876;2022-07-12T09:37:21;3.85;;;0.70;;
23588;SDS011;11972;48.078;11.876;2022-07-12T09:41:22;0.70;;;0.70;;
23588;SDS011;11972;48.078;11.876;2022-07-12T09:45:22;1.73;;;0.50;;
23588;SDS011;11972;48.078;11.876;2022-07-12T09:49:23;0.65;;;0.50;;
23588;SDS011;11972;48.078;11.876;2022-07-12T09:53:28;2.20;;;0.60;;
23588;SDS011;11972;48.078;11.876;2022-07-12T09:57:36;1.60;;;0.50;;
23588;SDS011;11972;48.078;11.876;2022-07-12T10:01:45;1.33;;;0.60;;
23588;SDS011;11972;48.078;11.876;2022-07-12T10:05:46;1.45;;;0.60;;
23588;SDS011;11972;48.078;11.876;2022-07-12T10:15:07;0.85;;;0.43;;
23588;SDS011;11972;48.078;11.876;2022-07-12T10:27:34;0.60;;;0.60;;
23588;SDS011;11972;48.078;11.876;2022-07-12T10:31:35;1.25;;;0.50;;
23588;SDS011;11972;48.078;11.876;2022-07-12T10:35:37;0.50;;;0.50;;
23588;SDS011;11972;48.078;11.876;2022-07-12T10:39:38;1.08;;;0.68;;
23588;SDS011;11972;48.078;11.876;2022-07-12T10:43:38;0.93;;;0.60;;
23588;SDS011;11972;48.078;11.876;2022-07-12T10:47:59;3.80;;;0.43;;
23588;SDS011;11972;48.078;11.876;2022-07-12T10:56:17;1.83;;;0.50;;
23588;SDS011;11972;48.078;11.876;2022-07-12T11:00:27;0.45;;;0.30;;
23588;SDS011;11972;48.078;11.876;2022-07-12T11:04:28;0.30;;;0.30;;
23588;SDS011;11972;48.078;11.876;2022-07-12T11:08:30;0.30;;;0.30;;
23588;SDS011;11972;48.078;11.876;2022-07-12T11:12:31;0.52;;;0.32;;
23588;SDS011;11972;48.078;11.876;2022-07-12T11:16:32;0.88;;;0.30;;
23588;SDS011;11972;48.078;11.876;2022-07-12T11:20:34;1.55;;;0.40;;
23588;SDS011;11972;48.078;11.876;2022-07-12T11:24:34;0.60;;;0.60;;
23588;SDS011;11972;48.078;11.876;2022-07-12T11:28:37;0.50;;;0.40;;
23588;SDS011;11972;48.078;11.876;2022-07-12T11:32:39;1.20;;;0.35;;
23588;SDS011;11972;48.078;11.876;2022-07-12T11:36:42;0.88;;;0.40;;
23588;SDS011;11972;48.078;11.876;2022-07-12T11:40:42;0.57;;;0.40;;
23588;SDS011;11972;48.078;11.876;2022-07-12T11:44:47;0.57;;;0.57;;
23588;SDS011;11972;48.078;11.876;2022-07-12T11:48:48;0.85;;;0.43;;
23588;SDS011;11972;48.078;11.876;2022-07-12T11:52:48;0.50;;;0.40;;
23588;SDS011;11972;48.078;11.876;2022-07-12T11:56:49;1.98;;;0.60;;
23588;SDS011;11972;48.078;11.876;2022-07-12T12:00:49;0.63;;;0.40;;
23588;SDS011;11972;48.078;11.876;2022-07-12T12:04:51;1.20;;;0.30;;
23588;SDS011;11972;48.078;11.876;2022-07-12T12:09:04;0.30;;;0.30;;
23588;SDS011;11972;48.078;11.876;2022-07-12T12:13:11;0.30;;;0.30;;
23588;SDS011;11972;48.078;11.876;2022-07-12T12:17:13;0.35;;;0.22;;
23588;SDS011;11972;48.078;11.876;2022-07-12T12:21:19;1.55;;;0.30;;
23588;SDS011;11972;48.078;11.876;2022-07-12T12:25:26;1.13;;;0.20;;
23588;SDS011;11972;48.078;11.876;2022-07-12T12:29:41;0.45;;;0.20;;
23588;SDS011;11972;48.078;11.876;2022-07-12T12:33:45;0.60;;;0.40;;
23588;SDS011;11972;48.078;11.876;2022-07-12T12:41:50;2.47;;;0.28;;
23588;SDS011;11972;48.078;11.876;2022-07-12T12:45:52;1.38;;;0.28;;
23588;SDS011;11972;48.078;11.876;2022-07-12T12:49:56;0.43;;;0.32;;
23588;SDS011;11972;48.078;11.876;2022-07-12T12:54:03;0.52;;;0.25;;
23588;SDS011;11972;48.078;11.876;2022-07-12T12:58:03;1.93;;;0.30;;
23588;SDS011;11972;48.078;11.876;2022-07-12T13:02:04;0.43;;;0.30;;
23588;SDS011;11972;48.078;11.876;2022-07-12T13:06:05;0.75;;;0.30;;
23588;SDS011;11972;48.078;11.876;2022-07-12T13:10:06;0.63;;;0.30;;
23588;SDS011;11972;48.078;11.876;2022-07-12T13:14:07;1.13;;;0.40;;
23588;SDS011;11972;48.078;11.876;2022-07-12T13:18:07;0.33;;;0.30;;
23588;SDS011;11972;48.078;11.876;2022-07-12T13:22:07;1.20;;;0.50;;
23588;SDS011;11972;48.078;11.876;2022-07-12T13:26:08;0.53;;;0.30;;
23588;SDS011;11972;48.078;11.876;2022-07-12T13:30:09;0.67;;;0.37;;
23588;SDS011;11972;48.078;11.876;2022-07-12T13:34:10;0.73;;;0.30;;
23588;SDS011;11972;48.078;11.876;2022-07-12T13:38:11;0.47;;;0.30;;
23588;SDS011;11972;48.078;11.876;2022-07-12T13:42:12;0.35;;;0.25;;
23588;SDS011;11972;48.078;11.876;2022-07-12T13:46:12;0.27;;;0.27;;
23588;SDS011;11972;48.078;11.876;2022-07-12T13:50:14;2.37;;;0.30;;
23588;SDS011;11972;48.078;11.876;2022-07-12T13:54:16;0.43;;;0.30;;
23588;SDS011;11972;48.078;11.876;2022-07-12T13:58:16;0.70;;;0.30;;
23588;SDS011;11972;48.078;11.876;2022-07-12T14:02:16;0.20;;;0.20;;
23588;SDS011;11972;48.078;11.876;2022-07-12T14:06:17;1.00;;;0.30;;
23588;SDS011;11972;48.078;11.876;2022-07-12T14:10:17;1.40;;;0.50;;
23588;SDS011;11972;48.078;11.876;2022-07-12T14:14:18;0.75;;;0.30;;
23588;SDS011;11972;48.078;11.876;2022-07-12T14:18:38;0.82;;;0.30;;
23588;SDS011;11972;48.078;11.876;2022-07-12T14:22:38;0.47;;;0.20;;
23588;SDS011;11972;48.078;11.876;2022-07-12T14:26:39;1.42;;;0.30;;
23588;SDS011;11972;48.078;11.876;2022-07-12T14:30:40;0.53;;;0.30;;
23588;SDS011;11972;48.078;11.876;2022-07-12T14:34:40;0.30;;;0.30;;
23588;SDS011;11972;48.078;11.876;2022-07-12T14:38:41;0.88;;;0.40;;
23588;SDS011;11972;48.078;11.876;2022-07-12T14:42:41;0.83;;;0.40;;
23588;SDS011;11972;48.078;11.876;2022-07-12T14:46:44;0.60;;;0.30;;
23588;SDS011;11972;48.078;11.876;2022-07-12T14:50:45;1.02;;;0.30;;
23588;SDS011;11972;48.078;11.876;2022-07-12T14:54:45;0.95;;;0.30;;
23588;SDS011;11972;48.078;11.876;2022-07-12T14:58:45;0.57;;;0.20;;
23588;SDS011;11972;48.078;11.876;2022-07-12T15:02:46;0.40;;;0.30;;
23588;SDS011;11972;48.078;11.876;2022-07-12T15:06:47;0.30;;;0.30;;
23588;SDS011;11972;48.078;11.876;2022-07-12T15:10:48;1.10;;;0.25;;
23588;SDS011;11972;48.078;11.876;2022-07-12T15:14:48;0.60;;;0.30;;
23588;SDS011;11972;48.078;11.876;2022-07-12T15:18:49;1.63;;;0.30;;
23588;SDS011;11972;48.078;11.876;2022-07-12T15:22:49;1.02;;;0.30;;
23588;SDS011;11972;48.078;11.876;2022-07-12T15:26:49;0.67;;;0.60;;
23588;SDS011;11972;48.078;11.876;2022-07-12T15:30:50;0.40;;;0.30;;
23588;SDS011;11972;48.078;11.876;2022-07-12T15:34:50;1.73;;;0.30;;
23588;SDS011;11972;48.078;11.876;2022-07-12T15:38:50;0.40;;;0.30;;
23588;SDS011;11972;48.078;11.876;2022-07-12T15:42:52;0.60;;;0.30;;
23588;SDS011;11972;48.078;11.876;2022-07-12T15:46:52;0.90;;;0.30;;
23588;SDS011;11972;48.078;11.876;2022-07-12T15:50:52;0.30;;;0.30;;
23588;SDS011;11972;48.078;11.876;2022-07-12T15:54:53;0.30;;;0.30;;
23588;SDS011;11972;48.078;11.876;2022-07-12T15:58:54;1.95;;;0.20;;
23588;SDS011;11972;48.078;11.876;2022-07-12T16:02:55;1.15;;;0.30;;
23588;SDS011;11972;48.078;11.876;2022-07-12T16:06:56;1.13;;;0.30;;
23588;SDS011;11972;48.078;11.876;2022-07-12T16:10:57;0.20;;;0.20;;
23588;SDS011;11972;48.078;11.876;2022-07-12T16:14:57;1.38;;;0.30;;
23588;SDS011;11972;48.078;11.876;2022-07-12T16:18:58;0.43;;;0.43;;
23588;SDS011;11972;48.078;11.876;2022-07-12T16:22:59;0.63;;;0.40;;
23588;SDS011;11972;48.078;11.876;2022-07-12T16:26:59;0.90;;;0.40;;
23588;SDS011;11972;48.078;11.876;2022-07-12T16:31:00;0.33;;;0.30;;
23588;SDS011;11972;48.078;11.876;2022-07-12T16:35:00;0.28;;;0.28;;
23588;SDS011;11972;48.078;11.876;2022-07-12T16:39:01;1.23;;;0.20;;
23588;SDS011;11972;48.078;11.876;2022-07-12T16:43:01;0.52;;;0.40;;
23588;SDS011;11972;48.078;11.876;2022-07-12T16:47:02;0.30;;;0.30;;
23588;SDS011;11972;48.078;11.876;2022-07-12T16:51:03;0.45;;;0.30;;
23588;SDS011;11972;48.078;11.876;2022-07-12T16:55:21;0.73;;;0.32;;
23588;SDS011;11972;48.078;11.876;2022-07-12T16:59:22;0.98;;;0.20;;
23588;SDS011;11972;48.078;11.876;2022-07-12T17:03:22;0.57;;;0.50;;
23588;SDS011;11972;48.078;11.876;2022-07-12T17:07:22;1.23;;;0.30;;
23588;SDS011;11972;48.078;11.876;2022-07-12T17:11:23;0.77;;;0.30;;
23588;SDS011;11972;48.078;11.876;2022-07-12T17:15:23;0.70;;;0.30;;
23588;SDS011;11972;48.078;11.876;2022-07-12T17:19:23;0.90;;;0.33;;
23588;SDS011;11972;48.078;11.876;2022-07-12T17:23:24;1.70;;;0.32;;
23588;SDS011;11972;48.078;11.876;2022-07-12T17:27:24;1.97;;;0.53;;
23588;SDS011;11972;48.078;11.876;2022-07-12T17:31:24;3.30;;;0.30;;
23588;SDS011;11972;48.078;11.876;2022-07-12T17:35:25;1.47;;;0.30;;
23588;SDS011;11972;48.078;11.876;2022-07-12T17:39:25;2.07;;;0.90;;
23588;SDS011;11972;48.078;11.876;2022-07-12T17:43:25;0.43;;;0.40;;
23588;SDS011;11972;48.078;11.876;2022-07-12T17:47:26;2.20;;;0.40;;
23588;SDS011;11972;48.078;11.876;2022-07-12T17:51:26;2.37;;;0.30;;
23588;SDS011;11972;48.078;11.876;2022-07-12T17:55:27;0.40;;;0.20;;
23588;SDS011;11972;48.078;11.876;2022-07-12T17:59:27;0.43;;;0.30;;
23588;SDS011;11972;48.078;11.876;2022-07-12T18:03:28;0.87;;;0.40;;
23588;SDS011;11972;48.078;11.876;2022-07-12T18:07:28;1.53;;;0.90;;
23588;SDS011;11972;48.078;11.876;2022-07-12T18:11:28;3.60;;;0.70;;
23588;SDS011;11972;48.078;11.876;2022-07-12T18:19:47;0.52;;;0.30;;
23588;SDS011;11972;48.078;11.876;2022-07-12T18:23:47;2.50;;;2.23;;
23588;SDS011;11972;48.078;11.876;2022-07-12T18:27:48;1.98;;;1.08;;
23588;SDS011;11972;48.078;11.876;2022-07-12T18:31:49;1.05;;;0.90;;
23588;SDS011;11972;48.078;11.876;2022-07-12T18:35:50;1.57;;;0.80;;
23588;SDS011;11972;48.078;11.876;2022-07-12T18:39:50;1.35;;;0.50;;
23588;SDS011;11972;48.078;11.876;2022-07-12T18:43:53;1.65;;;1.27;;
23588;SDS011;11972;48.078;11.876;2022-07-12T18:47:54;3.78;;;3.03;;
23588;SDS011;11972;48.078;11.876;2022-07-12T18:51:54;6.90;;;5.05;;
23588;SDS011;11972;48.078;11.876;2022-07-12T18:55:55;3.30;;;2.10;;
23588;SDS011;11972;48.078;11.876;2022-07-12T18:59:55;0.30;;;0.30;;
23588;SDS011;11972;48.078;11.876;2022-07-12T19:03:56;0.65;;;0.60;;
23588;SDS011;11972;48.078;11.876;2022-07-12T19:07:56;2.15;;;1.23;;
23588;SDS011;11972;48.078;11.876;2022-07-12T19:11:57;1.40;;;1.30;;
23588;SDS011;11972;48.078;11.876;2022-07-12T19:15:57;3.47;;;2.92;;
23588;SDS011;11972;48.078;11.876;2022-07-12T19:19:57;5.10;;;2.33;;
23588;SDS011;11972;48.078;11.876;2022-07-12T19:23:58;1.25;;;0.60;;
23588;SDS011;11972;48.078;11.876;2022-07-12T19:28:00;3.03;;;2.03;;
23588;SDS011;11972;48.078;11.876;2022-07-12T19:32:00;1.23;;;1.00;;
23588;SDS011;11972;48.078;11.876;2022-07-12T19:36:00;1.70;;;0.67;;
23588;SDS011;11972;48.078;11.876;2022-07-12T19:40:01;2.22;;;1.65;;
23588;SDS011;11972;48.078;11.876;2022-07-12T19:44:02;2.03;;;1.73;;
23588;SDS011;11972;48.078;11.876;2022-07-12T19:48:03;1.02;;;0.70;;
23588;SDS011;11972;48.078;11.876;2022-07-12T19:52:04;3.13;;;2.50;;
23588;SDS011;11972;48.078;11.876;2022-07-12T19:56:05;2.47;;;1.05;;
23588;SDS011;11972;48.078;11.876;2022-07-12T20:00:06;3.35;;;0.90;;
23588;SDS011;11972;48.078;11.876;2022-07-12T20:04:08;3.42;;;1.00;;
23588;SDS011;11972;48.078;11.876;2022-07-12T20:08:09;3.67;;;1.15;;
23588;SDS011;11972;48.078;11.876;2022-07-12T20:12:15;2.05;;;1.08;;
23588;SDS011;11972;48.078;11.876;2022-07-12T20:16:16;2.97;;;0.93;;
23588;SDS011;11972;48.078;11.876;2022-07-12T20:20:16;1.05;;;0.80;;
23588;SDS011;11972;48.078;11.876;2022-07-12T20:24:17;1.42;;;0.82;;
23588;SDS011;11972;48.078;11.876;2022-07-12T20:28:17;2.00;;;1.20;;
23588;SDS011;11972;48.078;11.876;2022-07-12T20:32:18;1.58;;;1.08;;
23588;SDS011;11972;48.078;11.876;2022-07-12T20:36:19;3.28;;;1.30;;
23588;SDS011;11972;48.078;11.876;2022-07-12T20:40:19;1.53;;;0.87;;
23588;SDS011;11972;48.078;11.876;2022-07-12T20:44:20;2.00;;;1.27;;
23588;SDS011;11972;48.078;11.876;2022-07-12T20:48:22;1.95;;;0.90;;
23588;SDS011;11972;48.078;11.876;2022-07-12T20:52:22;0.73;;;0.63;;
23588;SDS011;11972;48.078;11.876;2022-07-12T20:56:22;1.95;;;0.95;;
23588;SDS011;11972;48.078;11.876;2022-07-12T21:00:23;1.00;;;0.90;;
23588;SDS011;11972;48.078;11.876;2022-07-12T21:04:23;2.70;;;0.80;;
23588;SDS011;11972;48.078;11.876;2022-07-12T21:08:23;0.73;;;0.73;;
23588;SDS011;11972;48.078;11.876;2022-07-12T21:12:24;3.08;;;0.95;;
23588;SDS011;11972;48.078;11.876;2022-07-12T21:16:24;2.47;;;1.23;;
23588;SDS011;11972;48.078;11.876;2022-07-12T21:20:24;2.10;;;1.25;;
23588;SDS011;11972;48.078;11.876;2022-07-12T21:24:24;2.67;;;1.00;;
23588;SDS011;11972;48.078;11.876;2022-07-12T21:28:25;1.63;;;1.10;;
23588;SDS011;11972;48.078;11.876;2022-07-12T21:32:26;2.67;;;0.98;;
23588;SDS011;11972;48.078;11.876;2022-07-12T21:36:27;2.75;;;0.80;;
23588;SDS011;11972;48.078;11.876;2022-07-12T21:40:27;2.08;;;0.82;;
23588;SDS011;11972;48.078;11.876;2022-07-12T21:44:28;2.15;;;0.88;;
23588;SDS011;11972;48.078;11.876;2022-07-12T21:48:28;1.30;;;0.95;;
23588;SDS011;11972;48.078;11.876;2022-07-12T21:52:30;1.02;;;0.73;;
23588;SDS011;11972;48.078;11.876;2022-07-12T21:56:30;2.53;;;0.90;;
23588;SDS011;11972;48.078;11.876;2022-07-12T22:00:31;1.73;;;1.23;;
23588;SDS011;11972;48.078;11.876;2022-07-12T22:04:31;3.10;;;1.17;;
23588;SDS011;11972;48.078;11.876;2022-07-12T22:08:31;3.13;;;1.10;;
23588;SDS011;11972;48.078;11.876;2022-07-12T22:12:32;0.73;;;0.70;;
23588;SDS011;11972;48.078;11.876;2022-07-12T22:16:32;1.50;;;1.17;;
23588;SDS011;11972;48.078;11.876;2022-07-12T22:20:33;1.67;;;1.10;;
23588;SDS011;11972;48.078;11.876;2022-07-12T22:24:33;1.30;;;1.00;;
23588;SDS011;11972;48.078;11.876;2022-07-12T22:28:33;2.70;;;1.30;;
23588;SDS011;11972;48.078;11.876;2022-07-12T22:32:34;6.20;;;1.80;;
23588;SDS011;11972;48.078;11.876;2022-07-12T22:36:34;4.15;;;1.98;;
23588;SDS011;11972;48.078;11.876;2022-07-12T22:40:35;3.63;;;2.20;;
23588;SDS011;11972;48.078;11.876;2022-07-12T22:44:35;1.58;;;1.00;;
23588;SDS011;11972;48.078;11.876;2022-07-12T22:48:35;1.58;;;0.68;;
23588;SDS011;11972;48.078;11.876;2022-07-12T22:52:36;1.83;;;0.65;;
23588;SDS011;11972;48.078;11.876;2022-07-12T22:56:36;2.35;;;0.93;;
23588;SDS011;11972;48.078;11.876;2022-07-12T23:00:36;2.45;;;1.10;;
23588;SDS011;11972;48.078;11.876;2022-07-12T23:04:37;2.10;;;1.00;;
23588;SDS011;11972;48.078;11.876;2022-07-12T23:08:37;3.90;;;1.02;;
23588;SDS011;11972;48.078;11.876;2022-07-12T23:12:37;2.13;;;0.98;;
23588;SDS011;11972;48.078;11.876;2022-07-12T23:16:38;1.40;;;1.00;;
23588;SDS011;11972;48.078;11.876;2022-07-12T23:20:38;1.50;;;0.97;;
23588;SDS011;11972;48.078;11.876;2022-07-12T23:24:38;2.00;;;0.90;;
23588;SDS011;11972;48.078;11.876;2022-07-12T23:28:39;2.40;;;1.00;;
23588;SDS011;11972;48.078;11.876;2022-07-12T23:32:39;1.73;;;0.88;;
23588;SDS011;11972;48.078;11.876;2022-07-12T23:36:39;1.73;;;1.10;;
23588;SDS011;11972;48.078;11.876;2022-07-12T23:40:40;1.60;;;0.80;;
23588;SDS011;11972;48.078;11.876;2022-07-12T23:44:40;2.28;;;0.80;;
23588;SDS011;11972;48.078;11.876;2022-07-12T23:48:41;2.53;;;1.00;;
23588;SDS011;11972;48.078;11.876;2022-07-12T23:52:41;1.00;;;0.87;;
23588;SDS011;11972;48.078;11.876;2022-07-12T23:56:41;1.20;;;1.10;;
